sensor_id;sensor_type;location;lat;lon;timestamp;P1;durP1;ratioP1;P2;durP2;ratioP2
25237;SDS011;13185;50.872;5.306;2023-04-15T00:01:06;5.55;;;2.20;;
25237;SDS011;13185;50.872;5.306;2023-04-15T00:03:32;4.20;;;1.92;;
25237;SDS011;13185;50.872;5.306;2023-04-15T00:05:58;3.10;;;1.88;;
25237;SDS011;13185;50.872;5.306;2023-04-15T00:08:24;3.85;;;2.05;;
25237;SDS011;13185;50.872;5.306;2023-04-15T00:10:49;4.03;;;2.00;;
25237;SDS011;13185;50.872;5.306;2023-04-15T00:13:15;5.82;;;1.90;;
25237;SDS011;13185;50.872;5.306;2023-04-15T00:15:40;6.03;;;1.90;;
25237;SDS011;13185;50.872;5.306;2023-04-15T00:18:06;6.05;;;2.50;;
25237;SDS011;13185;50.872;5.306;2023-04-15T00:20:33;7.90;;;2.42;;
25237;SDS011;13185;50.872;5.306;2023-04-15T00:23:00;8.75;;;2.50;;
25237;SDS011;13185;50.872;5.306;2023-04-15T00:25:26;5.75;;;2.25;;
25237;SDS011;13185;50.872;5.306;2023-04-15T00:27:52;4.68;;;2.20;;
25237;SDS011;13185;50.872;5.306;2023-04-15T00:30:18;5.82;;;2.25;;
25237;SDS011;13185;50.872;5.306;2023-04-15T00:33:03;4.40;;;2.35;;
25237;SDS011;13185;50.872;5.306;2023-04-15T00:35:29;6.93;;;2.35;;
25237;SDS011;13185;50.872;5.306;2023-04-15T00:37:57;5.18;;;2.95;;
25237;SDS011;13185;50.872;5.306;2023-04-15T00:40:23;5.93;;;3.17;;
25237;SDS011;13185;50.872;5.306;2023-04-15T00:42:50;4.45;;;2.22;;
25237;SDS011;13185;50.872;5.306;2023-04-15T00:45:16;4.70;;;2.47;;
25237;SDS011;13185;50.872;5.306;2023-04-15T00:47:43;9.20;;;3.50;;
25237;SDS011;13185;50.872;5.306;2023-04-15T00:50:09;6.32;;;2.38;;
25237;SDS011;13185;50.872;5.306;2023-04-15T00:52:36;5.35;;;2.40;;
25237;SDS011;13185;50.872;5.306;2023-04-15T00:55:03;7.80;;;2.72;;
25237;SDS011;13185;50.872;5.306;2023-04-15T00:57:30;4.65;;;2.50;;
25237;SDS011;13185;50.872;5.306;2023-04-15T00:59:56;4.28;;;2.33;;
25237;SDS011;13185;50.872;5.306;2023-04-15T01:02:23;4.32;;;2.28;;
25237;SDS011;13185;50.872;5.306;2023-04-15T01:04:49;4.68;;;2.42;;
25237;SDS011;13185;50.872;5.306;2023-04-15T01:07:15;5.85;;;2.20;;
25237;SDS011;13185;50.872;5.306;2023-04-15T01:09:41;6.95;;;2.63;;
25237;SDS011;13185;50.872;5.306;2023-04-15T01:12:11;6.38;;;2.78;;
25237;SDS011;13185;50.872;5.306;2023-04-15T01:14:39;5.18;;;2.38;;
25237;SDS011;13185;50.872;5.306;2023-04-15T01:17:05;4.53;;;2.58;;
25237;SDS011;13185;50.872;5.306;2023-04-15T01:19:31;3.80;;;2.20;;
25237;SDS011;13185;50.872;5.306;2023-04-15T01:21:57;5.53;;;2.33;;
25237;SDS011;13185;50.872;5.306;2023-04-15T01:24:23;3.25;;;2.03;;
25237;SDS011;13185;50.872;5.306;2023-04-15T01:26:52;3.80;;;2.13;;
25237;SDS011;13185;50.872;5.306;2023-04-15T01:29:18;5.72;;;2.45;;
25237;SDS011;13185;50.872;5.306;2023-04-15T01:31:50;5.72;;;2.30;;
25237;SDS011;13185;50.872;5.306;2023-04-15T01:34:17;3.83;;;2.15;;
25237;SDS011;13185;50.872;5.306;2023-04-15T01:36:43;4.05;;;2.20;;
25237;SDS011;13185;50.872;5.306;2023-04-15T01:39:08;3.90;;;2.47;;
25237;SDS011;13185;50.872;5.306;2023-04-15T01:41:34;4.28;;;2.33;;
25237;SDS011;13185;50.872;5.306;2023-04-15T01:43:59;4.53;;;2.08;;
25237;SDS011;13185;50.872;5.306;2023-04-15T01:46:25;3.90;;;2.20;;
25237;SDS011;13185;50.872;5.306;2023-04-15T01:48:52;4.60;;;2.00;;
25237;SDS011;13185;50.872;5.306;2023-04-15T01:51:17;10.60;;;2.97;;
25237;SDS011;13185;50.872;5.306;2023-04-15T01:53:43;4.25;;;1.92;;
25237;SDS011;13185;50.872;5.306;2023-04-15T01:56:08;7.07;;;2.13;;
25237;SDS011;13185;50.872;5.306;2023-04-15T01:58:34;5.38;;;2.20;;
25237;SDS011;13185;50.872;5.306;2023-04-15T02:00:59;7.35;;;2.00;;
25237;SDS011;13185;50.872;5.306;2023-04-15T02:03:30;3.80;;;1.98;;
25237;SDS011;13185;50.872;5.306;2023-04-15T02:05:55;5.82;;;1.92;;
25237;SDS011;13185;50.872;5.306;2023-04-15T02:08:21;4.97;;;1.90;;
25237;SDS011;13185;50.872;5.306;2023-04-15T02:10:47;6.07;;;2.30;;
25237;SDS011;13185;50.872;5.306;2023-04-15T02:13:12;5.80;;;2.47;;
25237;SDS011;13185;50.872;5.306;2023-04-15T02:15:38;3.92;;;1.80;;
25237;SDS011;13185;50.872;5.306;2023-04-15T02:18:04;4.82;;;2.00;;
25237;SDS011;13185;50.872;5.306;2023-04-15T02:20:29;4.28;;;1.90;;
25237;SDS011;13185;50.872;5.306;2023-04-15T02:22:56;6.97;;;2.47;;
25237;SDS011;13185;50.872;5.306;2023-04-15T02:25:22;4.43;;;2.10;;
25237;SDS011;13185;50.872;5.306;2023-04-15T02:27:47;4.57;;;1.83;;
25237;SDS011;13185;50.872;5.306;2023-04-15T02:30:15;3.42;;;1.98;;
25237;SDS011;13185;50.872;5.306;2023-04-15T02:32:41;4.90;;;2.15;;
25237;SDS011;13185;50.872;5.306;2023-04-15T02:35:09;6.57;;;2.55;;
25237;SDS011;13185;50.872;5.306;2023-04-15T02:37:35;7.05;;;1.85;;
25237;SDS011;13185;50.872;5.306;2023-04-15T02:40:08;5.72;;;1.67;;
25237;SDS011;13185;50.872;5.306;2023-04-15T02:42:38;5.35;;;1.95;;
25237;SDS011;13185;50.872;5.306;2023-04-15T02:45:06;4.85;;;2.13;;
25237;SDS011;13185;50.872;5.306;2023-04-15T02:47:34;7.80;;;2.00;;
25237;SDS011;13185;50.872;5.306;2023-04-15T02:50:01;4.95;;;1.98;;
25237;SDS011;13185;50.872;5.306;2023-04-15T02:52:27;5.60;;;2.45;;
25237;SDS011;13185;50.872;5.306;2023-04-15T02:54:53;6.03;;;3.30;;
25237;SDS011;13185;50.872;5.306;2023-04-15T02:57:25;6.40;;;3.30;;
25237;SDS011;13185;50.872;5.306;2023-04-15T02:59:54;8.27;;;3.38;;
25237;SDS011;13185;50.872;5.306;2023-04-15T03:02:20;6.88;;;3.53;;
25237;SDS011;13185;50.872;5.306;2023-04-15T03:04:46;6.72;;;2.85;;
25237;SDS011;13185;50.872;5.306;2023-04-15T03:07:11;6.60;;;2.55;;
25237;SDS011;13185;50.872;5.306;2023-04-15T03:09:37;3.70;;;1.92;;
25237;SDS011;13185;50.872;5.306;2023-04-15T03:12:05;4.72;;;2.10;;
25237;SDS011;13185;50.872;5.306;2023-04-15T03:14:31;6.47;;;2.13;;
25237;SDS011;13185;50.872;5.306;2023-04-15T03:16:57;6.95;;;2.40;;
25237;SDS011;13185;50.872;5.306;2023-04-15T03:19:23;8.30;;;4.20;;
25237;SDS011;13185;50.872;5.306;2023-04-15T03:21:49;4.60;;;2.00;;
25237;SDS011;13185;50.872;5.306;2023-04-15T03:24:17;5.00;;;2.60;;
25237;SDS011;13185;50.872;5.306;2023-04-15T03:26:43;3.47;;;2.08;;
25237;SDS011;13185;50.872;5.306;2023-04-15T03:29:13;4.95;;;2.28;;
25237;SDS011;13185;50.872;5.306;2023-04-15T03:31:39;6.28;;;2.20;;
25237;SDS011;13185;50.872;5.306;2023-04-15T03:34:04;4.22;;;1.70;;
25237;SDS011;13185;50.872;5.306;2023-04-15T03:36:30;4.25;;;1.75;;
25237;SDS011;13185;50.872;5.306;2023-04-15T03:38:57;4.30;;;2.13;;
25237;SDS011;13185;50.872;5.306;2023-04-15T03:41:23;4.85;;;1.98;;
25237;SDS011;13185;50.872;5.306;2023-04-15T03:43:48;5.35;;;2.10;;
25237;SDS011;13185;50.872;5.306;2023-04-15T03:46:16;4.03;;;1.92;;
25237;SDS011;13185;50.872;5.306;2023-04-15T03:48:42;4.22;;;2.00;;
25237;SDS011;13185;50.872;5.306;2023-04-15T03:51:08;3.47;;;1.80;;
25237;SDS011;13185;50.872;5.306;2023-04-15T03:53:33;6.50;;;2.28;;
25237;SDS011;13185;50.872;5.306;2023-04-15T03:55:58;3.88;;;1.92;;
25237;SDS011;13185;50.872;5.306;2023-04-15T03:58:24;3.13;;;1.83;;
25237;SDS011;13185;50.872;5.306;2023-04-15T04:00:49;3.63;;;2.33;;
25237;SDS011;13185;50.872;5.306;2023-04-15T04:03:15;4.97;;;1.98;;
25237;SDS011;13185;50.872;5.306;2023-04-15T04:05:41;4.28;;;1.85;;
25237;SDS011;13185;50.872;5.306;2023-04-15T04:08:08;4.38;;;2.08;;
25237;SDS011;13185;50.872;5.306;2023-04-15T04:10:33;4.30;;;1.75;;
25237;SDS011;13185;50.872;5.306;2023-04-15T04:12:59;3.40;;;1.98;;
25237;SDS011;13185;50.872;5.306;2023-04-15T04:15:25;4.38;;;2.25;;
25237;SDS011;13185;50.872;5.306;2023-04-15T04:17:51;5.82;;;2.38;;
25237;SDS011;13185;50.872;5.306;2023-04-15T04:20:16;6.45;;;2.15;;
25237;SDS011;13185;50.872;5.306;2023-04-15T04:22:42;2.20;;;1.80;;
25237;SDS011;13185;50.872;5.306;2023-04-15T04:25:08;2.97;;;2.08;;
25237;SDS011;13185;50.872;5.306;2023-04-15T04:27:34;6.60;;;2.58;;
25237;SDS011;13185;50.872;5.306;2023-04-15T04:30:00;6.18;;;2.00;;
25237;SDS011;13185;50.872;5.306;2023-04-15T04:32:26;4.38;;;2.00;;
25237;SDS011;13185;50.872;5.306;2023-04-15T04:34:52;3.35;;;2.00;;
25237;SDS011;13185;50.872;5.306;2023-04-15T04:37:17;4.57;;;2.17;;
25237;SDS011;13185;50.872;5.306;2023-04-15T04:39:42;3.58;;;2.05;;
25237;SDS011;13185;50.872;5.306;2023-04-15T04:42:08;5.97;;;2.40;;
25237;SDS011;13185;50.872;5.306;2023-04-15T04:44:33;5.03;;;2.05;;
25237;SDS011;13185;50.872;5.306;2023-04-15T04:46:59;4.10;;;2.45;;
25237;SDS011;13185;50.872;5.306;2023-04-15T04:49:24;7.40;;;2.38;;
25237;SDS011;13185;50.872;5.306;2023-04-15T04:51:50;4.45;;;2.42;;
25237;SDS011;13185;50.872;5.306;2023-04-15T04:54:16;5.72;;;3.17;;
25237;SDS011;13185;50.872;5.306;2023-04-15T04:56:41;8.85;;;2.95;;
25237;SDS011;13185;50.872;5.306;2023-04-15T04:59:07;7.50;;;2.30;;
25237;SDS011;13185;50.872;5.306;2023-04-15T05:01:33;4.15;;;2.17;;
25237;SDS011;13185;50.872;5.306;2023-04-15T05:03:59;4.50;;;2.38;;
25237;SDS011;13185;50.872;5.306;2023-04-15T05:06:24;4.97;;;2.58;;
25237;SDS011;13185;50.872;5.306;2023-04-15T05:08:50;5.93;;;2.63;;
25237;SDS011;13185;50.872;5.306;2023-04-15T05:11:16;4.03;;;2.78;;
25237;SDS011;13185;50.872;5.306;2023-04-15T05:13:42;7.90;;;3.22;;
25237;SDS011;13185;50.872;5.306;2023-04-15T05:16:08;4.72;;;2.38;;
25237;SDS011;13185;50.872;5.306;2023-04-15T05:18:33;6.20;;;2.83;;
25237;SDS011;13185;50.872;5.306;2023-04-15T05:20:59;4.78;;;2.70;;
25237;SDS011;13185;50.872;5.306;2023-04-15T05:23:25;8.40;;;2.58;;
25237;SDS011;13185;50.872;5.306;2023-04-15T05:25:50;6.45;;;2.75;;
25237;SDS011;13185;50.872;5.306;2023-04-15T05:28:16;6.65;;;2.50;;
25237;SDS011;13185;50.872;5.306;2023-04-15T05:30:41;5.38;;;2.05;;
25237;SDS011;13185;50.872;5.306;2023-04-15T05:33:07;5.18;;;2.40;;
25237;SDS011;13185;50.872;5.306;2023-04-15T05:35:33;7.82;;;2.35;;
25237;SDS011;13185;50.872;5.306;2023-04-15T05:37:58;5.18;;;2.65;;
25237;SDS011;13185;50.872;5.306;2023-04-15T05:40:24;4.95;;;2.22;;
25237;SDS011;13185;50.872;5.306;2023-04-15T05:42:50;6.07;;;1.98;;
25237;SDS011;13185;50.872;5.306;2023-04-15T05:45:15;7.72;;;2.42;;
25237;SDS011;13185;50.872;5.306;2023-04-15T05:47:41;7.55;;;3.00;;
25237;SDS011;13185;50.872;5.306;2023-04-15T05:50:07;10.32;;;3.05;;
25237;SDS011;13185;50.872;5.306;2023-04-15T05:52:33;4.30;;;2.38;;
25237;SDS011;13185;50.872;5.306;2023-04-15T05:54:58;6.07;;;3.30;;
25237;SDS011;13185;50.872;5.306;2023-04-15T05:57:24;5.97;;;2.65;;
25237;SDS011;13185;50.872;5.306;2023-04-15T05:59:49;5.20;;;2.78;;
25237;SDS011;13185;50.872;5.306;2023-04-15T06:02:18;5.53;;;2.80;;
25237;SDS011;13185;50.872;5.306;2023-04-15T06:04:43;5.93;;;3.55;;
25237;SDS011;13185;50.872;5.306;2023-04-15T06:07:09;8.68;;;3.17;;
25237;SDS011;13185;50.872;5.306;2023-04-15T06:09:34;8.20;;;3.17;;
25237;SDS011;13185;50.872;5.306;2023-04-15T06:12:00;6.03;;;3.03;;
25237;SDS011;13185;50.872;5.306;2023-04-15T06:14:26;6.40;;;2.80;;
25237;SDS011;13185;50.872;5.306;2023-04-15T06:16:52;10.05;;;3.00;;
25237;SDS011;13185;50.872;5.306;2023-04-15T06:19:17;7.18;;;3.60;;
25237;SDS011;13185;50.872;5.306;2023-04-15T06:21:43;7.97;;;3.30;;
25237;SDS011;13185;50.872;5.306;2023-04-15T06:24:10;5.88;;;2.80;;
25237;SDS011;13185;50.872;5.306;2023-04-15T06:26:36;6.75;;;3.55;;
25237;SDS011;13185;50.872;5.306;2023-04-15T06:29:02;5.78;;;2.67;;
25237;SDS011;13185;50.872;5.306;2023-04-15T06:31:27;6.80;;;2.80;;
25237;SDS011;13185;50.872;5.306;2023-04-15T06:33:53;4.70;;;2.65;;
25237;SDS011;13185;50.872;5.306;2023-04-15T06:36:18;9.23;;;2.88;;
25237;SDS011;13185;50.872;5.306;2023-04-15T06:38:44;6.07;;;3.03;;
25237;SDS011;13185;50.872;5.306;2023-04-15T06:41:10;8.90;;;2.92;;
25237;SDS011;13185;50.872;5.306;2023-04-15T06:43:38;6.22;;;2.90;;
25237;SDS011;13185;50.872;5.306;2023-04-15T06:46:04;6.63;;;2.63;;
25237;SDS011;13185;50.872;5.306;2023-04-15T06:48:29;9.93;;;3.20;;
25237;SDS011;13185;50.872;5.306;2023-04-15T06:50:55;7.78;;;2.85;;
25237;SDS011;13185;50.872;5.306;2023-04-15T06:53:23;6.57;;;3.65;;
25237;SDS011;13185;50.872;5.306;2023-04-15T06:55:51;10.13;;;3.55;;
25237;SDS011;13185;50.872;5.306;2023-04-15T06:58:16;12.02;;;4.32;;
25237;SDS011;13185;50.872;5.306;2023-04-15T07:00:42;8.80;;;3.60;;
25237;SDS011;13185;50.872;5.306;2023-04-15T07:03:07;6.68;;;3.40;;
25237;SDS011;13185;50.872;5.306;2023-04-15T07:05:35;8.20;;;3.88;;
25237;SDS011;13185;50.872;5.306;2023-04-15T07:08:00;7.65;;;3.70;;
25237;SDS011;13185;50.872;5.306;2023-04-15T07:10:26;6.80;;;3.35;;
25237;SDS011;13185;50.872;5.306;2023-04-15T07:12:51;9.55;;;3.80;;
25237;SDS011;13185;50.872;5.306;2023-04-15T07:15:17;6.38;;;3.17;;
25237;SDS011;13185;50.872;5.306;2023-04-15T07:17:42;7.47;;;3.15;;
25237;SDS011;13185;50.872;5.306;2023-04-15T07:20:08;8.63;;;4.05;;
25237;SDS011;13185;50.872;5.306;2023-04-15T07:22:34;5.82;;;3.33;;
25237;SDS011;13185;50.872;5.306;2023-04-15T07:25:00;7.25;;;3.42;;
25237;SDS011;13185;50.872;5.306;2023-04-15T07:27:25;6.97;;;3.00;;
25237;SDS011;13185;50.872;5.306;2023-04-15T07:29:51;7.65;;;3.25;;
25237;SDS011;13185;50.872;5.306;2023-04-15T07:32:17;6.97;;;3.60;;
25237;SDS011;13185;50.872;5.306;2023-04-15T07:34:43;6.95;;;3.28;;
25237;SDS011;13185;50.872;5.306;2023-04-15T07:37:09;6.00;;;3.22;;
25237;SDS011;13185;50.872;5.306;2023-04-15T07:39:34;8.23;;;3.13;;
25237;SDS011;13185;50.872;5.306;2023-04-15T07:42:01;6.82;;;3.28;;
25237;SDS011;13185;50.872;5.306;2023-04-15T07:44:27;6.60;;;2.95;;
25237;SDS011;13185;50.872;5.306;2023-04-15T07:46:52;6.38;;;3.25;;
25237;SDS011;13185;50.872;5.306;2023-04-15T07:49:18;8.23;;;2.83;;
25237;SDS011;13185;50.872;5.306;2023-04-15T07:51:45;8.93;;;4.22;;
25237;SDS011;13185;50.872;5.306;2023-04-15T07:54:11;7.32;;;3.22;;
25237;SDS011;13185;50.872;5.306;2023-04-15T07:56:36;7.55;;;3.47;;
25237;SDS011;13185;50.872;5.306;2023-04-15T07:59:02;6.07;;;3.40;;
25237;SDS011;13185;50.872;5.306;2023-04-15T08:01:29;8.43;;;3.58;;
25237;SDS011;13185;50.872;5.306;2023-04-15T08:03:55;9.55;;;3.55;;
25237;SDS011;13185;50.872;5.306;2023-04-15T08:06:21;9.68;;;3.97;;
25237;SDS011;13185;50.872;5.306;2023-04-15T08:08:46;7.38;;;3.13;;
25237;SDS011;13185;50.872;5.306;2023-04-15T08:11:12;9.52;;;3.67;;
25237;SDS011;13185;50.872;5.306;2023-04-15T08:13:38;8.32;;;3.25;;
25237;SDS011;13185;50.872;5.306;2023-04-15T08:16:15;6.95;;;3.28;;
25237;SDS011;13185;50.872;5.306;2023-04-15T08:18:45;7.63;;;3.53;;
25237;SDS011;13185;50.872;5.306;2023-04-15T08:21:12;6.65;;;3.60;;
25237;SDS011;13185;50.872;5.306;2023-04-15T08:23:39;8.75;;;3.90;;
25237;SDS011;13185;50.872;5.306;2023-04-15T08:26:05;7.55;;;3.70;;
25237;SDS011;13185;50.872;5.306;2023-04-15T08:28:31;7.88;;;3.72;;
25237;SDS011;13185;50.872;5.306;2023-04-15T08:30:57;7.32;;;4.00;;
25237;SDS011;13185;50.872;5.306;2023-04-15T08:33:22;10.70;;;4.07;;
25237;SDS011;13185;50.872;5.306;2023-04-15T08:35:48;10.13;;;4.75;;
25237;SDS011;13185;50.872;5.306;2023-04-15T08:38:13;8.20;;;4.88;;
25237;SDS011;13185;50.872;5.306;2023-04-15T08:40:43;9.45;;;5.78;;
25237;SDS011;13185;50.872;5.306;2023-04-15T08:46:08;8.75;;;6.65;;
25237;SDS011;13185;50.872;5.306;2023-04-15T08:48:36;11.20;;;6.22;;
25237;SDS011;13185;50.872;5.306;2023-04-15T08:51:04;11.90;;;6.47;;
25237;SDS011;13185;50.872;5.306;2023-04-15T08:53:31;9.88;;;5.88;;
25237;SDS011;13185;50.872;5.306;2023-04-15T08:55:57;11.02;;;6.30;;
25237;SDS011;13185;50.872;5.306;2023-04-15T08:58:28;10.05;;;6.25;;
25237;SDS011;13185;50.872;5.306;2023-04-15T09:00:55;8.68;;;5.75;;
25237;SDS011;13185;50.872;5.306;2023-04-15T09:03:21;8.10;;;4.95;;
25237;SDS011;13185;50.872;5.306;2023-04-15T09:05:47;7.50;;;4.97;;
25237;SDS011;13185;50.872;5.306;2023-04-15T09:08:14;8.23;;;5.35;;
25237;SDS011;13185;50.872;5.306;2023-04-15T09:10:40;9.90;;;5.15;;
25237;SDS011;13185;50.872;5.306;2023-04-15T09:13:05;4.85;;;4.35;;
25237;SDS011;13185;50.872;5.306;2023-04-15T09:15:31;6.93;;;4.20;;
25237;SDS011;13185;50.872;5.306;2023-04-15T09:17:57;6.93;;;5.00;;
25237;SDS011;13185;50.872;5.306;2023-04-15T09:20:23;8.02;;;4.65;;
25237;SDS011;13185;50.872;5.306;2023-04-15T09:22:49;8.20;;;4.47;;
25237;SDS011;13185;50.872;5.306;2023-04-15T09:27:51;6.40;;;4.25;;
25237;SDS011;13185;50.872;5.306;2023-04-15T09:30:20;7.45;;;4.20;;
25237;SDS011;13185;50.872;5.306;2023-04-15T09:32:57;6.22;;;4.05;;
25237;SDS011;13185;50.872;5.306;2023-04-15T09:35:25;4.50;;;3.67;;
25237;SDS011;13185;50.872;5.306;2023-04-15T09:37:52;6.07;;;3.80;;
25237;SDS011;13185;50.872;5.306;2023-04-15T09:40:34;6.13;;;3.50;;
25237;SDS011;13185;50.872;5.306;2023-04-15T09:43:02;4.57;;;3.30;;
25237;SDS011;13185;50.872;5.306;2023-04-15T09:45:29;6.22;;;3.55;;
25237;SDS011;13185;50.872;5.306;2023-04-15T09:47:56;7.53;;;4.05;;
25237;SDS011;13185;50.872;5.306;2023-04-15T09:50:23;4.20;;;3.40;;
25237;SDS011;13185;50.872;5.306;2023-04-15T09:52:53;6.85;;;3.42;;
25237;SDS011;13185;50.872;5.306;2023-04-15T09:55:18;7.43;;;4.22;;
25237;SDS011;13185;50.872;5.306;2023-04-15T09:57:44;4.85;;;3.05;;
25237;SDS011;13185;50.872;5.306;2023-04-15T10:00:11;5.70;;;3.50;;
25237;SDS011;13185;50.872;5.306;2023-04-15T10:02:41;4.38;;;3.80;;
25237;SDS011;13185;50.872;5.306;2023-04-15T10:05:10;6.55;;;3.78;;
25237;SDS011;13185;50.872;5.306;2023-04-15T10:07:38;6.10;;;3.40;;
25237;SDS011;13185;50.872;5.306;2023-04-15T10:10:07;4.78;;;3.28;;
25237;SDS011;13185;50.872;5.306;2023-04-15T10:12:36;6.65;;;3.15;;
25237;SDS011;13185;50.872;5.306;2023-04-15T10:15:03;4.55;;;3.15;;
25237;SDS011;13185;50.872;5.306;2023-04-15T10:17:29;3.60;;;2.58;;
25237;SDS011;13185;50.872;5.306;2023-04-15T10:20:02;2.83;;;2.03;;
25237;SDS011;13185;50.872;5.306;2023-04-15T10:22:29;4.43;;;2.60;;
25237;SDS011;13185;50.872;5.306;2023-04-15T10:24:57;5.22;;;3.15;;
25237;SDS011;13185;50.872;5.306;2023-04-15T10:27:26;6.80;;;3.70;;
25237;SDS011;13185;50.872;5.306;2023-04-15T10:29:52;3.25;;;2.70;;
25237;SDS011;13185;50.872;5.306;2023-04-15T10:32:19;2.92;;;1.83;;
25237;SDS011;13185;50.872;5.306;2023-04-15T10:34:47;3.80;;;1.65;;
25237;SDS011;13185;50.872;5.306;2023-04-15T10:37:19;2.25;;;1.45;;
25237;SDS011;13185;50.872;5.306;2023-04-15T10:39:46;4.45;;;1.65;;
25237;SDS011;13185;50.872;5.306;2023-04-15T10:42:13;3.55;;;1.38;;
25237;SDS011;13185;50.872;5.306;2023-04-15T10:44:41;1.40;;;0.85;;
25237;SDS011;13185;50.872;5.306;2023-04-15T10:47:09;2.42;;;0.90;;
25237;SDS011;13185;50.872;5.306;2023-04-15T10:49:46;2.65;;;1.30;;
25237;SDS011;13185;50.872;5.306;2023-04-15T10:52:23;3.17;;;1.57;;
25237;SDS011;13185;50.872;5.306;2023-04-15T10:57:53;2.58;;;1.52;;
25237;SDS011;13185;50.872;5.306;2023-04-15T11:00:27;3.88;;;1.15;;
25237;SDS011;13185;50.872;5.306;2023-04-15T11:02:56;6.60;;;1.80;;
25237;SDS011;13185;50.872;5.306;2023-04-15T11:08:07;3.30;;;2.13;;
25237;SDS011;13185;50.872;5.306;2023-04-15T11:13:03;2.80;;;1.55;;
25237;SDS011;13185;50.872;5.306;2023-04-15T11:15:53;2.58;;;1.80;;
25237;SDS011;13185;50.872;5.306;2023-04-15T11:18:21;5.88;;;1.90;;
25237;SDS011;13185;50.872;5.306;2023-04-15T11:20:55;5.35;;;2.30;;
25237;SDS011;13185;50.872;5.306;2023-04-15T11:26:10;2.63;;;2.33;;
25237;SDS011;13185;50.872;5.306;2023-04-15T11:28:37;15.88;;;8.68;;
25237;SDS011;13185;50.872;5.306;2023-04-15T11:31:05;3.30;;;2.58;;
25237;SDS011;13185;50.872;5.306;2023-04-15T11:33:35;3.05;;;2.10;;
25237;SDS011;13185;50.872;5.306;2023-04-15T11:36:01;2.72;;;2.20;;
25237;SDS011;13185;50.872;5.306;2023-04-15T11:38:28;2.45;;;1.92;;
25237;SDS011;13185;50.872;5.306;2023-04-15T11:40:54;7.40;;;1.70;;
25237;SDS011;13185;50.872;5.306;2023-04-15T11:43:20;2.55;;;2.13;;
25237;SDS011;13185;50.872;5.306;2023-04-15T11:48:18;2.08;;;1.67;;
25237;SDS011;13185;50.872;5.306;2023-04-15T11:50:55;3.42;;;1.95;;
25237;SDS011;13185;50.872;5.306;2023-04-15T11:53:34;3.38;;;1.10;;
25237;SDS011;13185;50.872;5.306;2023-04-15T11:56:15;1.30;;;1.08;;
25237;SDS011;13185;50.872;5.306;2023-04-15T11:58:42;1.80;;;1.30;;
25237;SDS011;13185;50.872;5.306;2023-04-15T12:01:08;2.08;;;1.30;;
25237;SDS011;13185;50.872;5.306;2023-04-15T12:03:41;2.22;;;1.17;;
25237;SDS011;13185;50.872;5.306;2023-04-15T12:13:52;2.00;;;0.80;;
25237;SDS011;13185;50.872;5.306;2023-04-15T12:16:20;1.92;;;0.50;;
25237;SDS011;13185;50.872;5.306;2023-04-15T12:18:52;1.95;;;1.10;;
25237;SDS011;13185;50.872;5.306;2023-04-15T12:21:23;1.25;;;0.90;;
25237;SDS011;13185;50.872;5.306;2023-04-15T12:24:00;3.33;;;1.20;;
25237;SDS011;13185;50.872;5.306;2023-04-15T12:26:33;1.30;;;1.00;;
25237;SDS011;13185;50.872;5.306;2023-04-15T12:29:13;3.83;;;0.95;;
25237;SDS011;13185;50.872;5.306;2023-04-15T12:34:34;1.65;;;0.47;;
25237;SDS011;13185;50.872;5.306;2023-04-15T12:37:06;3.22;;;0.68;;
25237;SDS011;13185;50.872;5.306;2023-04-15T12:39:34;2.67;;;0.90;;
25237;SDS011;13185;50.872;5.306;2023-04-15T12:42:02;2.42;;;0.68;;
25237;SDS011;13185;50.872;5.306;2023-04-15T12:44:29;2.95;;;0.88;;
25237;SDS011;13185;50.872;5.306;2023-04-15T12:46:55;1.55;;;0.60;;
25237;SDS011;13185;50.872;5.306;2023-04-15T12:49:22;2.60;;;1.00;;
25237;SDS011;13185;50.872;5.306;2023-04-15T12:51:48;1.55;;;0.80;;
25237;SDS011;13185;50.872;5.306;2023-04-15T12:54:15;1.35;;;1.05;;
25237;SDS011;13185;50.872;5.306;2023-04-15T12:56:42;1.45;;;1.00;;
25237;SDS011;13185;50.872;5.306;2023-04-15T12:59:08;2.13;;;0.90;;
25237;SDS011;13185;50.872;5.306;2023-04-15T13:01:33;2.10;;;0.90;;
25237;SDS011;13185;50.872;5.306;2023-04-15T13:03:59;1.67;;;1.02;;
25237;SDS011;13185;50.872;5.306;2023-04-15T13:06:27;2.33;;;0.65;;
25237;SDS011;13185;50.872;5.306;2023-04-15T13:08:53;1.73;;;0.73;;
25237;SDS011;13185;50.872;5.306;2023-04-15T13:11:20;3.70;;;0.65;;
25237;SDS011;13185;50.872;5.306;2023-04-15T13:13:46;2.38;;;0.65;;
25237;SDS011;13185;50.872;5.306;2023-04-15T13:16:12;5.00;;;0.80;;
25237;SDS011;13185;50.872;5.306;2023-04-15T13:18:38;2.22;;;0.70;;
25237;SDS011;13185;50.872;5.306;2023-04-15T13:21:03;1.23;;;0.70;;
25237;SDS011;13185;50.872;5.306;2023-04-15T13:23:32;4.00;;;0.85;;
25237;SDS011;13185;50.872;5.306;2023-04-15T13:25:58;0.95;;;0.57;;
25237;SDS011;13185;50.872;5.306;2023-04-15T13:28:23;0.77;;;0.70;;
25237;SDS011;13185;50.872;5.306;2023-04-15T13:30:49;1.90;;;0.90;;
25237;SDS011;13185;50.872;5.306;2023-04-15T13:33:15;0.88;;;0.60;;
25237;SDS011;13185;50.872;5.306;2023-04-15T13:35:41;1.23;;;0.88;;
25237;SDS011;13185;50.872;5.306;2023-04-15T13:38:07;2.85;;;0.95;;
25237;SDS011;13185;50.872;5.306;2023-04-15T13:40:32;2.60;;;0.63;;
25237;SDS011;13185;50.872;5.306;2023-04-15T13:42:58;2.67;;;0.55;;
25237;SDS011;13185;50.872;5.306;2023-04-15T13:45:24;1.20;;;0.80;;
25237;SDS011;13185;50.872;5.306;2023-04-15T13:47:51;1.90;;;1.20;;
25237;SDS011;13185;50.872;5.306;2023-04-15T13:50:17;2.33;;;0.98;;
25237;SDS011;13185;50.872;5.306;2023-04-15T13:52:43;1.17;;;0.80;;
25237;SDS011;13185;50.872;5.306;2023-04-15T13:57:36;1.60;;;0.90;;
25237;SDS011;13185;50.872;5.306;2023-04-15T14:00:02;4.53;;;1.02;;
25237;SDS011;13185;50.872;5.306;2023-04-15T14:02:31;1.75;;;0.70;;
25237;SDS011;13185;50.872;5.306;2023-04-15T14:04:57;2.25;;;0.65;;
25237;SDS011;13185;50.872;5.306;2023-04-15T14:07:23;2.88;;;0.88;;
25237;SDS011;13185;50.872;5.306;2023-04-15T14:09:48;1.48;;;1.10;;
25237;SDS011;13185;50.872;5.306;2023-04-15T14:12:14;4.18;;;1.00;;
25237;SDS011;13185;50.872;5.306;2023-04-15T14:14:40;1.73;;;0.82;;
25237;SDS011;13185;50.872;5.306;2023-04-15T14:17:06;5.30;;;1.08;;
25237;SDS011;13185;50.872;5.306;2023-04-15T14:19:32;10.73;;;1.50;;
25237;SDS011;13185;50.872;5.306;2023-04-15T14:21:59;1.20;;;0.90;;
25237;SDS011;13185;50.872;5.306;2023-04-15T14:24:25;1.25;;;0.52;;
25237;SDS011;13185;50.872;5.306;2023-04-15T14:26:50;0.85;;;0.60;;
25237;SDS011;13185;50.872;5.306;2023-04-15T14:29:16;4.20;;;0.95;;
25237;SDS011;13185;50.872;5.306;2023-04-15T14:31:41;8.57;;;2.40;;
25237;SDS011;13185;50.872;5.306;2023-04-15T14:34:09;8.63;;;0.90;;
25237;SDS011;13185;50.872;5.306;2023-04-15T14:36:35;4.22;;;0.73;;
25237;SDS011;13185;50.872;5.306;2023-04-15T14:39:00;2.05;;;0.50;;
25237;SDS011;13185;50.872;5.306;2023-04-15T14:41:28;1.45;;;0.65;;
25237;SDS011;13185;50.872;5.306;2023-04-15T14:43:54;2.03;;;0.70;;
25237;SDS011;13185;50.872;5.306;2023-04-15T14:46:21;1.42;;;0.57;;
25237;SDS011;13185;50.872;5.306;2023-04-15T14:48:47;4.32;;;0.73;;
25237;SDS011;13185;50.872;5.306;2023-04-15T14:51:13;1.30;;;0.50;;
25237;SDS011;13185;50.872;5.306;2023-04-15T14:53:40;1.27;;;0.60;;
25237;SDS011;13185;50.872;5.306;2023-04-15T14:56:06;1.50;;;1.10;;
25237;SDS011;13185;50.872;5.306;2023-04-15T14:58:31;2.45;;;0.95;;
25237;SDS011;13185;50.872;5.306;2023-04-15T15:00:57;4.22;;;0.70;;
25237;SDS011;13185;50.872;5.306;2023-04-15T15:03:23;1.88;;;0.60;;
25237;SDS011;13185;50.872;5.306;2023-04-15T15:05:49;3.08;;;0.90;;
25237;SDS011;13185;50.872;5.306;2023-04-15T15:08:14;1.30;;;0.82;;
25237;SDS011;13185;50.872;5.306;2023-04-15T15:10:40;3.08;;;1.13;;
25237;SDS011;13185;50.872;5.306;2023-04-15T15:13:06;2.70;;;1.00;;
25237;SDS011;13185;50.872;5.306;2023-04-15T15:15:33;0.80;;;0.60;;
25237;SDS011;13185;50.872;5.306;2023-04-15T15:18:00;1.08;;;0.63;;